sensor_id;sensor_type;location;lat;lon;timestamp;pressure;altitude;pressure_sealevel;temperature;humidity
6827;BME280;3451;52.476;13.316;2022-07-05T00:01:03;59288.47;;;-145.19;100.00
6827;BME280;3451;52.476;13.316;2022-07-05T00:03:30;59485.72;;;-145.19;100.00
6827;BME280;3451;52.476;13.316;2022-07-05T00:05:57;59347.44;;;-145.19;100.00
6827;BME280;3451;52.476;13.316;2022-07-05T00:08:24;59164.44;;;-145.19;100.00
6827;BME280;3451;52.476;13.316;2022-07-05T00:10:51;59499.94;;;-145.19;100.00
6827;BME280;3451;52.476;13.316;2022-07-05T00:13:18;59813.13;;;-145.19;100.00
6827;BME280;3451;52.476;13.316;2022-07-05T00:15:44;60352.06;;;-145.19;100.00
6827;BME280;3451;52.476;13.316;2022-07-05T00:18:11;59619.94;;;-145.19;100.00
6827;BME280;3451;52.476;13.316;2022-07-05T00:20:37;60307.31;;;-145.19;100.00
6827;BME280;3451;52.476;13.316;2022-07-05T00:23:04;60140.53;;;-145.19;100.00
6827;BME280;3451;52.476;13.316;2022-07-05T00:25:30;60063.25;;;-145.19;100.00
6827;BME280;3451;52.476;13.316;2022-07-05T00:27:57;60120.19;;;-145.19;100.00
6827;BME280;3451;52.476;13.316;2022-07-05T00:30:23;60913.44;;;-145.19;100.00
6827;BME280;3451;52.476;13.316;2022-07-05T00:32:49;59737.88;;;-145.19;100.00
6827;BME280;3451;52.476;13.316;2022-07-05T00:35:16;59520.28;;;-145.19;100.00
6827;BME280;3451;52.476;13.316;2022-07-05T00:37:42;60358.16;;;-145.19;100.00
6827;BME280;3451;52.476;13.316;2022-07-05T00:40:09;61658.03;;;-145.19;100.00
6827;BME280;3451;52.476;13.316;2022-07-05T00:42:35;62895.22;;;-145.19;100.00
6827;BME280;3451;52.476;13.316;2022-07-05T00:45:04;63841.69;;;-145.19;100.00
6827;BME280;3451;52.476;13.316;2022-07-05T00:47:30;63770.44;;;-145.19;100.00
6827;BME280;3451;52.476;13.316;2022-07-05T00:49:57;64599.03;;;-145.19;100.00
6827;BME280;3451;52.476;13.316;2022-07-05T00:52:23;65378.91;;;-145.19;100.00
6827;BME280;3451;52.476;13.316;2022-07-05T00:54:50;65505.19;;;-145.19;100.00
6827;BME280;3451;52.476;13.316;2022-07-05T00:57:19;65181.38;;;-145.19;100.00
6827;BME280;3451;52.476;13.316;2022-07-05T00:59:46;67354.75;;;-145.19;100.00
6827;BME280;3451;52.476;13.316;2022-07-05T01:02:12;68112.78;;;-145.19;100.00
6827;BME280;3451;52.476;13.316;2022-07-05T01:04:44;70151.16;;;-145.19;100.00
6827;BME280;3451;52.476;13.316;2022-07-05T01:07:12;71978.41;;;-145.19;100.00
6827;BME280;3451;52.476;13.316;2022-07-05T01:09:38;73284.09;;;-145.19;100.00
6827;BME280;3451;52.476;13.316;2022-07-05T01:12:05;73284.09;;;-145.19;100.00
6827;BME280;3451;52.476;13.316;2022-07-05T01:14:32;75112.81;;;-145.19;100.00
6827;BME280;3451;52.476;13.316;2022-07-05T01:16:59;75374.13;;;-145.19;100.00
6827;BME280;3451;52.476;13.316;2022-07-05T01:19:26;77465.22;;;-145.19;100.00
6827;BME280;3451;52.476;13.316;2022-07-05T01:21:52;78249.66;;;-145.19;100.00
6827;BME280;3451;52.476;13.316;2022-07-05T01:24:19;79819.00;;;-145.19;100.00
6827;BME280;3451;52.476;13.316;2022-07-05T01:26:48;79034.25;;;-145.19;100.00
6827;BME280;3451;52.476;13.316;2022-07-05T01:29:15;80080.63;;;-145.19;100.00
6827;BME280;3451;52.476;13.316;2022-07-05T01:31:42;81127.25;;;-145.19;100.00
6827;BME280;3451;52.476;13.316;2022-07-05T01:34:09;80080.63;;;-145.19;100.00
6827;BME280;3451;52.476;13.316;2022-07-05T01:36:35;80342.25;;;-145.19;100.00
6827;BME280;3451;52.476;13.316;2022-07-05T01:39:03;80342.25;;;-145.19;100.00
6827;BME280;3451;52.476;13.316;2022-07-05T01:41:30;80865.56;;;-145.19;100.00
6827;BME280;3451;52.476;13.316;2022-07-05T01:43:57;80865.56;;;-145.19;100.00
6827;BME280;3451;52.476;13.316;2022-07-05T01:46:25;80080.63;;;-145.19;100.00
6827;BME280;3451;52.476;13.316;2022-07-05T01:48:56;80865.56;;;-145.19;100.00
6827;BME280;3451;52.476;13.316;2022-07-05T01:51:26;80342.25;;;-145.19;100.00
6827;BME280;3451;52.476;13.316;2022-07-05T01:53:53;80865.56;;;-145.19;100.00
6827;BME280;3451;52.476;13.316;2022-07-05T01:56:20;80603.91;;;-145.19;100.00
6827;BME280;3451;52.476;13.316;2022-07-05T01:58:46;78511.19;;;-145.19;100.00
6827;BME280;3451;52.476;13.316;2022-07-05T02:01:13;78511.19;;;-145.19;100.00
6827;BME280;3451;52.476;13.316;2022-07-05T02:03:40;77465.22;;;-145.19;100.00
6827;BME280;3451;52.476;13.316;2022-07-05T02:06:22;74067.72;;;-145.19;100.00
6827;BME280;3451;52.476;13.316;2022-07-05T02:08:48;72239.50;;;-145.19;100.00
6827;BME280;3451;52.476;13.316;2022-07-05T02:11:15;70151.16;;;-145.19;100.00
6827;BME280;3451;52.476;13.316;2022-07-05T02:13:41;69629.22;;;-145.19;100.00
6827;BME280;3451;52.476;13.316;2022-07-05T02:16:08;68846.47;;;-145.19;100.00
6827;BME280;3451;52.476;13.316;2022-07-05T02:18:35;69890.19;;;-145.19;100.00
6827;BME280;3451;52.476;13.316;2022-07-05T02:21:02;69107.38;;;-145.19;100.00
6827;BME280;3451;52.476;13.316;2022-07-05T02:23:28;69629.22;;;-145.19;100.00
6827;BME280;3451;52.476;13.316;2022-07-05T02:25:55;70934.16;;;-145.19;100.00
6827;BME280;3451;52.476;13.316;2022-07-05T02:28:21;70934.16;;;-145.19;100.00
6827;BME280;3451;52.476;13.316;2022-07-05T02:30:48;71195.19;;;-145.19;100.00
6827;BME280;3451;52.476;13.316;2022-07-05T02:33:14;70934.16;;;-145.19;100.00
6827;BME280;3451;52.476;13.316;2022-07-05T02:35:41;71456.25;;;-145.19;100.00
6827;BME280;3451;52.476;13.316;2022-07-05T02:38:07;72239.50;;;-145.19;100.00
6827;BME280;3451;52.476;13.316;2022-07-05T02:40:33;73022.94;;;-145.19;100.00
6827;BME280;3451;52.476;13.316;2022-07-05T02:43:00;73022.94;;;-145.19;100.00
6827;BME280;3451;52.476;13.316;2022-07-05T02:45:26;73284.09;;;-145.19;100.00
6827;BME280;3451;52.476;13.316;2022-07-05T02:47:53;74067.72;;;-145.19;100.00
6827;BME280;3451;52.476;13.316;2022-07-05T02:50:19;73284.09;;;-145.19;100.00
6827;BME280;3451;52.476;13.316;2022-07-05T02:52:46;74328.97;;;-145.19;100.00
6827;BME280;3451;52.476;13.316;2022-07-05T02:55:12;74851.50;;;-145.19;100.00
6827;BME280;3451;52.476;13.316;2022-07-05T02:57:38;75374.13;;;-145.19;100.00
6827;BME280;3451;52.476;13.316;2022-07-05T03:00:06;74851.50;;;-145.19;100.00
6827;BME280;3451;52.476;13.316;2022-07-05T03:02:32;75896.78;;;-145.19;100.00
6827;BME280;3451;52.476;13.316;2022-07-05T03:04:59;77203.78;;;-145.19;100.00
6827;BME280;3451;52.476;13.316;2022-07-05T03:07:25;77988.16;;;-145.19;100.00
6827;BME280;3451;52.476;13.316;2022-07-05T03:09:52;78511.19;;;-145.19;100.00
6827;BME280;3451;52.476;13.316;2022-07-05T03:12:18;79819.00;;;-145.19;100.00
6827;BME280;3451;52.476;13.316;2022-07-05T03:14:45;80342.25;;;-145.19;100.00
6827;BME280;3451;52.476;13.316;2022-07-05T03:17:12;81388.97;;;-145.19;100.00
6827;BME280;3451;52.476;13.316;2022-07-05T03:19:39;82697.75;;;-145.19;100.00
6827;BME280;3451;52.476;13.316;2022-07-05T03:22:05;82959.53;;;-145.19;100.00
6827;BME280;3451;52.476;13.316;2022-07-05T03:24:32;82697.75;;;-145.19;100.00
6827;BME280;3451;52.476;13.316;2022-07-05T03:26:58;82959.53;;;-145.19;100.00
6827;BME280;3451;52.476;13.316;2022-07-05T03:29:25;83745.06;;;-145.19;100.00
6827;BME280;3451;52.476;13.316;2022-07-05T03:31:51;84268.81;;;-145.19;100.00
6827;BME280;3451;52.476;13.316;2022-07-05T03:34:18;84792.66;;;-145.19;100.00
6827;BME280;3451;52.476;13.316;2022-07-05T03:36:44;84792.66;;;-145.19;100.00
6827;BME280;3451;52.476;13.316;2022-07-05T03:39:11;84530.72;;;-145.19;100.00
6827;BME280;3451;52.476;13.316;2022-07-05T03:41:37;85316.56;;;-145.19;100.00
6827;BME280;3451;52.476;13.316;2022-07-05T03:44:03;85054.59;;;-145.19;100.00
6827;BME280;3451;52.476;13.316;2022-07-05T03:46:30;85316.56;;;-145.19;100.00
6827;BME280;3451;52.476;13.316;2022-07-05T03:48:56;85578.53;;;-145.19;100.00
6827;BME280;3451;52.476;13.316;2022-07-05T03:51:23;86364.56;;;-145.19;100.00
6827;BME280;3451;52.476;13.316;2022-07-05T03:53:50;86626.59;;;-145.19;100.00
6827;BME280;3451;52.476;13.316;2022-07-05T03:56:16;86364.56;;;-145.19;100.00
6827;BME280;3451;52.476;13.316;2022-07-05T03:58:49;86888.66;;;-145.19;100.00
6827;BME280;3451;52.476;13.316;2022-07-05T04:01:16;86888.66;;;-145.19;100.00
6827;BME280;3451;52.476;13.316;2022-07-05T04:03:43;86888.66;;;-145.19;100.00
6827;BME280;3451;52.476;13.316;2022-07-05T04:06:10;86888.66;;;-145.19;100.00
6827;BME280;3451;52.476;13.316;2022-07-05T04:08:37;86888.66;;;-145.19;100.00
6827;BME280;3451;52.476;13.316;2022-07-05T04:11:04;86888.66;;;-145.19;100.00
6827;BME280;3451;52.476;13.316;2022-07-05T04:13:31;87150.75;;;-145.19;100.00
6827;BME280;3451;52.476;13.316;2022-07-05T04:15:58;87674.94;;;-145.19;100.00
6827;BME280;3451;52.476;13.316;2022-07-05T04:18:24;88199.22;;;-145.19;100.00
6827;BME280;3451;52.476;13.316;2022-07-05T04:20:51;86888.66;;;-145.19;100.00
6827;BME280;3451;52.476;13.316;2022-07-05T04:23:17;85840.53;;;-145.19;100.00
6827;BME280;3451;52.476;13.316;2022-07-05T04:25:44;85054.59;;;-145.19;100.00
6827;BME280;3451;52.476;13.316;2022-07-05T04:28:10;84268.81;;;-145.19;100.00
6827;BME280;3451;52.476;13.316;2022-07-05T04:30:37;84530.72;;;-145.19;100.00
6827;BME280;3451;52.476;13.316;2022-07-05T04:33:04;84006.94;;;-145.19;100.00
6827;BME280;3451;52.476;13.316;2022-07-05T04:35:30;83483.19;;;-145.19;100.00
6827;BME280;3451;52.476;13.316;2022-07-05T04:37:57;82174.19;;;-145.19;100.00
6827;BME280;3451;52.476;13.316;2022-07-05T04:40:23;80865.56;;;-145.19;100.00
6827;BME280;3451;52.476;13.316;2022-07-05T04:42:50;79557.41;;;-145.19;100.00
6827;BME280;3451;52.476;13.316;2022-07-05T04:45:17;79295.81;;;-145.19;100.00
6827;BME280;3451;52.476;13.316;2022-07-05T04:47:43;77988.16;;;-145.19;100.00
6827;BME280;3451;52.476;13.316;2022-07-05T04:50:10;78249.66;;;-145.19;100.00
6827;BME280;3451;52.476;13.316;2022-07-05T04:52:36;77726.69;;;-145.19;100.00
6827;BME280;3451;52.476;13.316;2022-07-05T04:55:03;77203.78;;;-145.19;100.00
6827;BME280;3451;52.476;13.316;2022-07-05T04:57:39;76419.53;;;-145.19;100.00
6827;BME280;3451;52.476;13.316;2022-07-05T05:00:11;74851.50;;;-145.19;100.00
6827;BME280;3451;52.476;13.316;2022-07-05T05:02:38;71717.31;;;-145.19;100.00
6827;BME280;3451;52.476;13.316;2022-07-05T05:05:04;68846.47;;;-145.19;100.00
6827;BME280;3451;52.476;13.316;2022-07-05T05:07:31;65993.97;;;-145.19;100.00
6827;BME280;3451;52.476;13.316;2022-07-05T05:10:04;65228.22;;;-145.19;100.00
6827;BME280;3451;52.476;13.316;2022-07-05T05:12:30;65256.72;;;-145.19;100.00
6827;BME280;3451;52.476;13.316;2022-07-05T05:14:57;61715.00;;;-145.19;100.00
6827;BME280;3451;52.476;13.316;2022-07-05T05:17:23;59815.16;;;-145.19;100.00
6827;BME280;3451;52.476;13.316;2022-07-05T05:19:50;57832.88;;;-145.19;100.00
6827;BME280;3451;52.476;13.316;2022-07-05T05:22:16;57599.13;;;-145.19;100.00
6827;BME280;3451;52.476;13.316;2022-07-05T05:24:42;56800.47;;;-145.19;100.00
6827;BME280;3451;52.476;13.316;2022-07-05T05:27:09;57910.13;;;-145.19;100.00
6827;BME280;3451;52.476;13.316;2022-07-05T05:29:35;56944.72;;;-145.19;100.00
6827;BME280;3451;52.476;13.316;2022-07-05T05:32:02;56343.25;;;-145.19;100.00
6827;BME280;3451;52.476;13.316;2022-07-05T05:34:28;55806.91;;;-145.19;100.00
6827;BME280;3451;52.476;13.316;2022-07-05T05:36:55;55453.44;;;-145.19;100.00
6827;BME280;3451;52.476;13.316;2022-07-05T05:39:21;55142.63;;;-145.19;100.00
6827;BME280;3451;52.476;13.316;2022-07-05T05:41:48;55416.88;;;-145.19;100.00
6827;BME280;3451;52.476;13.316;2022-07-05T05:44:14;55030.91;;;-145.19;100.00
6827;BME280;3451;52.476;13.316;2022-07-05T05:46:40;55091.84;;;-145.19;100.00
6827;BME280;3451;52.476;13.316;2022-07-05T05:49:07;54882.66;;;-145.19;100.00
6827;BME280;3451;52.476;13.316;2022-07-05T05:51:33;54383.03;;;-145.19;99.63
6827;BME280;3451;52.476;13.316;2022-07-05T05:54:00;54112.94;;;-145.19;98.64
6827;BME280;3451;52.476;13.316;2022-07-05T05:56:26;53647.94;;;-145.19;96.38
6827;BME280;3451;52.476;13.316;2022-07-05T05:58:53;53191.13;;;-145.19;93.71
6827;BME280;3451;52.476;13.316;2022-07-05T06:01:19;53300.75;;;-145.19;94.46
6827;BME280;3451;52.476;13.316;2022-07-05T06:03:46;53069.31;;;-145.19;92.67
6827;BME280;3451;52.476;13.316;2022-07-05T06:06:12;52933.28;;;-145.19;91.87
6827;BME280;3451;52.476;13.316;2022-07-05T06:08:39;52984.03;;;-145.19;91.78
6827;BME280;3451;52.476;13.316;2022-07-05T06:11:05;53073.38;;;-145.19;92.15
6827;BME280;3451;52.476;13.316;2022-07-05T06:13:32;52821.63;;;-145.19;90.12
6827;BME280;3451;52.476;13.316;2022-07-05T06:15:59;52744.50;;;-145.19;89.79
6827;BME280;3451;52.476;13.316;2022-07-05T06:18:25;52880.50;;;-145.19;90.67
6827;BME280;3451;52.476;13.316;2022-07-05T06:20:52;52620.69;;;-145.19;88.28
6827;BME280;3451;52.476;13.316;2022-07-05T06:23:18;52768.88;;;-145.19;89.13
6827;BME280;3451;52.476;13.316;2022-07-05T06:25:45;52740.44;;;-145.19;88.56
6827;BME280;3451;52.476;13.316;2022-07-05T06:28:11;52716.09;;;-145.19;88.53
6827;BME280;3451;52.476;13.316;2022-07-05T06:30:38;52785.09;;;-145.19;88.56
6827;BME280;3451;52.476;13.316;2022-07-05T06:33:05;52699.84;;;-145.19;87.65
6827;BME280;3451;52.476;13.316;2022-07-05T06:35:32;52651.13;;;-145.19;87.31
6827;BME280;3451;52.476;13.316;2022-07-05T06:38:01;52655.19;;;-145.19;87.30
6827;BME280;3451;52.476;13.316;2022-07-05T06:40:32;52691.72;;;-145.19;87.46
6827;BME280;3451;52.476;13.316;2022-07-05T06:43:02;52561.81;;;-145.19;85.91
6827;BME280;3451;52.476;13.316;2022-07-05T06:45:29;52618.66;;;-145.19;86.38
6827;BME280;3451;52.476;13.316;2022-07-05T06:47:57;52703.91;;;-145.19;86.79
6827;BME280;3451;52.476;13.316;2022-07-05T06:50:25;52610.53;;;-145.19;85.81
6827;BME280;3451;52.476;13.316;2022-07-05T06:52:52;52549.63;;;-145.19;84.99
6827;BME280;3451;52.476;13.316;2022-07-05T06:55:20;52429.88;;;-145.19;83.30
6827;BME280;3451;52.476;13.316;2022-07-05T06:57:47;52647.06;;;-145.19;85.00
6827;BME280;3451;52.476;13.316;2022-07-05T07:00:34;52504.97;;;-145.19;83.75
6827;BME280;3451;52.476;13.316;2022-07-05T07:03:21;52389.28;;;-145.19;82.39
6827;BME280;3451;52.476;13.316;2022-07-05T07:06:07;52277.63;;;-145.19;81.13
6827;BME280;3451;52.476;13.316;2022-07-05T07:08:34;52401.44;;;-145.19;81.71
6827;BME280;3451;52.476;13.316;2022-07-05T07:11:20;52198.47;;;-145.19;79.49
6827;BME280;3451;52.476;13.316;2022-07-05T07:13:46;52072.63;;;-145.19;77.08
6827;BME280;3451;52.476;13.316;2022-07-05T07:16:13;51950.84;;;-145.19;74.33
6827;BME280;3451;52.476;13.316;2022-07-05T07:18:39;51956.94;;;-145.19;74.22
6827;BME280;3451;52.476;13.316;2022-07-05T07:21:26;51877.78;;;-145.19;72.49
6827;BME280;3451;52.476;13.316;2022-07-05T07:23:52;51798.63;;;-145.19;70.97
6827;BME280;3451;52.476;13.316;2022-07-05T07:26:19;51883.88;;;-145.19;72.18
6827;BME280;3451;52.476;13.316;2022-07-05T07:28:45;51808.78;;;-145.19;69.60
6827;BME280;3451;52.476;13.316;2022-07-05T07:31:11;51804.72;;;-145.19;69.55
6827;BME280;3451;52.476;13.316;2022-07-05T07:33:38;51715.44;;;-145.19;66.36
6827;BME280;3451;52.476;13.316;2022-07-05T07:36:10;51674.84;;;-145.19;65.58
6827;BME280;3451;52.476;13.316;2022-07-05T07:38:40;51672.81;;;-145.19;64.47
6827;BME280;3451;52.476;13.316;2022-07-05T07:41:07;51721.53;;;-145.19;65.69
6827;BME280;3451;52.476;13.316;2022-07-05T07:43:34;51557.13;;;-145.19;59.59
6827;BME280;3451;52.476;13.316;2022-07-05T07:46:00;51516.56;;;-145.19;59.90
6827;BME280;3451;52.476;13.316;2022-07-05T07:48:27;51599.75;;;-145.19;61.13
6827;BME280;3451;52.476;13.316;2022-07-05T07:50:54;51607.88;;;-145.19;59.61
6827;BME280;3451;52.476;13.316;2022-07-05T07:53:22;51607.88;;;-145.19;57.65
6827;BME280;3451;52.476;13.316;2022-07-05T07:55:49;51522.63;;;-145.19;55.69
6827;BME280;3451;52.476;13.316;2022-07-05T07:58:15;51522.63;;;-145.19;54.08
6827;BME280;3451;52.476;13.316;2022-07-05T08:00:42;51565.25;;;-145.19;54.38
6827;BME280;3451;52.476;13.316;2022-07-05T08:03:08;51591.63;;;-145.19;55.29
6827;BME280;3451;52.476;13.316;2022-07-05T08:05:35;51534.81;;;-145.19;51.47
6827;BME280;3451;52.476;13.316;2022-07-05T08:08:02;51559.16;;;-145.19;52.40
6827;BME280;3451;52.476;13.316;2022-07-05T08:10:29;51526.69;;;-145.19;51.20
6827;BME280;3451;52.476;13.316;2022-07-05T08:12:55;51563.22;;;-145.19;50.64
6827;BME280;3451;52.476;13.316;2022-07-05T08:15:22;51567.28;;;-145.19;50.80
6827;BME280;3451;52.476;13.316;2022-07-05T08:17:48;51632.22;;;-145.19;51.38
6827;BME280;3451;52.476;13.316;2022-07-05T08:20:34;51563.22;;;-145.19;48.72
6827;BME280;3451;52.476;13.316;2022-07-05T08:23:19;51609.91;;;-145.19;48.55
6827;BME280;3451;52.476;13.316;2022-07-05T08:25:46;51542.94;;;-145.19;45.41
6827;BME280;3451;52.476;13.316;2022-07-05T08:28:12;51624.09;;;-145.19;46.78
6827;BME280;3451;52.476;13.316;2022-07-05T08:30:38;51538.88;;;-145.19;46.37
6827;BME280;3451;52.476;13.316;2022-07-05T08:33:05;51624.09;;;-145.19;49.05
6827;BME280;3451;52.476;13.316;2022-07-05T08:35:31;51620.06;;;-145.19;47.27
6827;BME280;3451;52.476;13.316;2022-07-05T08:37:58;51589.59;;;-145.19;45.45
6827;BME280;3451;52.476;13.316;2022-07-05T08:40:26;51618.03;;;-145.19;45.95
6827;BME280;3451;52.476;13.316;2022-07-05T08:42:55;51502.34;;;-145.19;43.08
6827;BME280;3451;52.476;13.316;2022-07-05T08:45:25;51624.09;;;-145.19;47.24
6827;BME280;3451;52.476;13.316;2022-07-05T08:47:55;51534.81;;;-145.19;43.69
6827;BME280;3451;52.476;13.316;2022-07-05T08:50:24;51607.88;;;-145.19;45.42
6827;BME280;3451;52.476;13.316;2022-07-05T08:52:53;51571.34;;;-145.19;44.73
6827;BME280;3451;52.476;13.316;2022-07-05T08:55:19;51569.31;;;-145.19;46.06
6827;BME280;3451;52.476;13.316;2022-07-05T08:57:46;51565.25;;;-145.19;45.07
6827;BME280;3451;52.476;13.316;2022-07-05T09:00:13;51628.16;;;-145.19;46.11
6827;BME280;3451;52.476;13.316;2022-07-05T09:02:39;51593.66;;;-145.19;45.61
6827;BME280;3451;52.476;13.316;2022-07-05T09:05:06;51563.22;;;-145.19;42.67
6827;BME280;3451;52.476;13.316;2022-07-05T09:07:36;51559.16;;;-145.19;43.71
6827;BME280;3451;52.476;13.316;2022-07-05T09:10:04;51611.94;;;-145.19;42.52
6827;BME280;3451;52.476;13.316;2022-07-05T09:12:31;51553.06;;;-145.19;41.68
6827;BME280;3451;52.476;13.316;2022-07-05T09:14:57;51626.13;;;-145.19;42.68
6827;BME280;3451;52.476;13.316;2022-07-05T09:17:24;51583.53;;;-145.19;46.16
6827;BME280;3451;52.476;13.316;2022-07-05T09:20:05;51575.41;;;-145.19;43.07
6827;BME280;3451;52.476;13.316;2022-07-05T09:25:27;51632.22;;;-145.19;41.27
6827;BME280;3451;52.476;13.316;2022-07-05T09:28:03;51613.97;;;-145.19;43.41
6827;BME280;3451;52.476;13.316;2022-07-05T09:30:35;51551.06;;;-145.19;43.62
6827;BME280;3451;52.476;13.316;2022-07-05T09:33:09;51534.81;;;-145.19;43.09
6827;BME280;3451;52.476;13.316;2022-07-05T09:35:50;51607.88;;;-145.19;44.90
6827;BME280;3451;52.476;13.316;2022-07-05T09:38:26;51569.31;;;-145.19;45.25
6827;BME280;3451;52.476;13.316;2022-07-05T09:40:55;51616.00;;;-145.19;45.02
6827;BME280;3451;52.476;13.316;2022-07-05T09:43:24;51618.03;;;-145.19;43.81
6827;BME280;3451;52.476;13.316;2022-07-05T09:48:24;51585.56;;;-145.19;42.28
6827;BME280;3451;52.476;13.316;2022-07-05T09:51:09;51571.34;;;-145.19;41.20
6827;BME280;3451;52.476;13.316;2022-07-05T09:53:58;51542.94;;;-145.19;43.58
6827;BME280;3451;52.476;13.316;2022-07-05T09:56:29;51512.50;;;-145.19;41.71
6827;BME280;3451;52.476;13.316;2022-07-05T09:59:11;51524.66;;;-145.19;43.86
6827;BME280;3451;52.476;13.316;2022-07-05T10:01:39;51547.00;;;-145.19;44.33
6827;BME280;3451;52.476;13.316;2022-07-05T10:04:08;51583.53;;;-145.19;44.28
6827;BME280;3451;52.476;13.316;2022-07-05T10:06:34;51551.06;;;-145.19;41.88
6827;BME280;3451;52.476;13.316;2022-07-05T10:09:01;51551.06;;;-145.19;42.04
6827;BME280;3451;52.476;13.316;2022-07-05T10:11:28;51536.84;;;-145.19;42.05
6827;BME280;3451;52.476;13.316;2022-07-05T10:13:55;51494.22;;;-145.19;41.58
6827;BME280;3451;52.476;13.316;2022-07-05T10:16:24;51514.53;;;-145.19;42.45
6827;BME280;3451;52.476;13.316;2022-07-05T10:18:52;51530.75;;;-145.19;44.04
6827;BME280;3451;52.476;13.316;2022-07-05T10:21:19;51453.63;;;-145.19;43.95
6827;BME280;3451;52.476;13.316;2022-07-05T10:23:50;51510.47;;;-145.19;43.55
6827;BME280;3451;52.476;13.316;2022-07-05T10:26:20;51496.25;;;-145.19;43.95
6827;BME280;3451;52.476;13.316;2022-07-05T10:28:50;51563.22;;;-145.19;43.81
6827;BME280;3451;52.476;13.316;2022-07-05T10:31:26;51551.06;;;-145.19;43.12
6827;BME280;3451;52.476;13.316;2022-07-05T10:33:55;51544.97;;;-145.19;42.75
6827;BME280;3451;52.476;13.316;2022-07-05T10:36:22;51480.03;;;-145.19;42.04
6827;BME280;3451;52.476;13.316;2022-07-05T10:38:49;51473.94;;;-145.19;44.85
6827;BME280;3451;52.476;13.316;2022-07-05T10:41:19;51455.66;;;-145.19;46.05
6827;BME280;3451;52.476;13.316;2022-07-05T10:43:55;51445.53;;;-145.19;45.54
6827;BME280;3451;52.476;13.316;2022-07-05T10:46:37;51419.16;;;-145.19;43.19
6827;BME280;3451;52.476;13.316;2022-07-05T10:49:16;51475.97;;;-145.19;44.35
6827;BME280;3451;52.476;13.316;2022-07-05T10:51:44;51469.88;;;-145.19;44.02
6827;BME280;3451;52.476;13.316;2022-07-05T10:54:16;51439.44;;;-145.19;45.13
6827;BME280;3451;52.476;13.316;2022-07-05T10:57:21;51433.34;;;-145.19;44.45
6827;BME280;3451;52.476;13.316;2022-07-05T11:00:10;51437.41;;;-145.19;43.91
6827;BME280;3451;52.476;13.316;2022-07-05T11:02:38;51453.63;;;-145.19;46.55
6827;BME280;3451;52.476;13.316;2022-07-05T11:05:06;51437.41;;;-145.19;44.98
6827;BME280;3451;52.476;13.316;2022-07-05T11:07:58;51447.56;;;-145.19;45.15
6827;BME280;3451;52.476;13.316;2022-07-05T11:10:25;51473.94;;;-145.19;45.46
6827;BME280;3451;52.476;13.316;2022-07-05T11:12:51;51445.53;;;-145.19;45.70
6827;BME280;3451;52.476;13.316;2022-07-05T11:15:18;51437.41;;;-145.19;46.23
6827;BME280;3451;52.476;13.316;2022-07-05T11:17:44;51421.16;;;-145.19;46.01
6827;BME280;3451;52.476;13.316;2022-07-05T11:20:27;51413.06;;;-145.19;45.21
6827;BME280;3451;52.476;13.316;2022-07-05T11:25:34;51372.47;;;-145.19;47.27
6827;BME280;3451;52.476;13.316;2022-07-05T11:28:18;51368.41;;;-145.19;49.26
6827;BME280;3451;52.476;13.316;2022-07-05T11:30:51;51368.41;;;-145.19;49.16
6827;BME280;3451;52.476;13.316;2022-07-05T11:33:41;51360.28;;;-145.19;49.24
6827;BME280;3451;52.476;13.316;2022-07-05T11:36:22;51360.28;;;-145.19;50.21
6827;BME280;3451;52.476;13.316;2022-07-05T11:39:12;51325.78;;;-145.19;51.67
6827;BME280;3451;52.476;13.316;2022-07-05T11:41:43;51344.06;;;-145.19;51.98
6827;BME280;3451;52.476;13.316;2022-07-05T11:44:10;51348.13;;;-145.19;52.72
6827;BME280;3451;52.476;13.316;2022-07-05T11:46:36;51333.91;;;-145.19;53.19
6827;BME280;3451;52.476;13.316;2022-07-05T11:49:18;51348.13;;;-145.19;52.59
6827;BME280;3451;52.476;13.316;2022-07-05T11:51:53;51364.34;;;-145.19;52.25
6827;BME280;3451;52.476;13.316;2022-07-05T11:54:30;51344.06;;;-145.19;51.32
6827;BME280;3451;52.476;13.316;2022-07-05T11:56:59;51323.75;;;-145.19;50.50
6827;BME280;3451;52.476;13.316;2022-07-05T11:59:26;51305.50;;;-145.19;52.17
6827;BME280;3451;52.476;13.316;2022-07-05T12:01:53;51319.72;;;-145.19;50.52
6827;BME280;3451;52.476;13.316;2022-07-05T12:04:24;51352.19;;;-145.19;50.93
6827;BME280;3451;52.476;13.316;2022-07-05T12:06:51;51315.66;;;-145.19;50.71
6827;BME280;3451;52.476;13.316;2022-07-05T12:09:23;51303.47;;;-145.19;49.88
6827;BME280;3451;52.476;13.316;2022-07-05T12:11:54;51309.56;;;-145.19;51.25
6827;BME280;3451;52.476;13.316;2022-07-05T12:14:52;51295.34;;;-145.19;51.49
6827;BME280;3451;52.476;13.316;2022-07-05T12:17:19;51319.72;;;-145.19;51.34
6827;BME280;3451;52.476;13.316;2022-07-05T12:19:52;51311.59;;;-145.19;52.29
6827;BME280;3451;52.476;13.316;2022-07-05T12:22:30;51275.06;;;-145.19;51.62
6827;BME280;3451;52.476;13.316;2022-07-05T12:24:58;51295.34;;;-145.19;51.28
6827;BME280;3451;52.476;13.316;2022-07-05T12:27:29;51287.25;;;-145.19;50.81
6827;BME280;3451;52.476;13.316;2022-07-05T12:29:57;51329.84;;;-145.19;51.49
6827;BME280;3451;52.476;13.316;2022-07-05T12:32:23;51319.72;;;-145.19;50.52
6827;BME280;3451;52.476;13.316;2022-07-05T12:34:50;51301.44;;;-145.19;50.71
6827;BME280;3451;52.476;13.316;2022-07-05T12:37:21;51291.31;;;-145.19;50.35
6827;BME280;3451;52.476;13.316;2022-07-05T12:39:49;51299.41;;;-145.19;50.73
6827;BME280;3451;52.476;13.316;2022-07-05T12:42:32;51340.00;;;-145.19;49.87
6827;BME280;3451;52.476;13.316;2022-07-05T12:45:14;51309.56;;;-145.19;49.10
6827;BME280;3451;52.476;13.316;2022-07-05T12:47:54;51279.13;;;-145.19;48.75
6827;BME280;3451;52.476;13.316;2022-07-05T12:50:22;51333.91;;;-145.19;48.31
6827;BME280;3451;52.476;13.316;2022-07-05T12:53:04;51303.47;;;-145.19;48.98
6827;BME280;3451;52.476;13.316;2022-07-05T12:55:58;51266.94;;;-145.19;48.78
6827;BME280;3451;52.476;13.316;2022-07-05T12:58:45;51323.75;;;-145.19;49.31
6827;BME280;3451;52.476;13.316;2022-07-05T13:01:39;51283.19;;;-145.19;48.86
6827;BME280;3451;52.476;13.316;2022-07-05T13:04:11;51319.72;;;-145.19;49.29